Time;durP1;ratioP1;P1;durP2;ratioP2;P2;SDS_P1;SDS_P2;PMS_P1;PMS_P2;Temp;Humidity;BMP_temperature;BMP_pressure;BME280_temperature;BME280_humidity;BME280_pressure;Samples;Min_cycle;Max_cycle;Signal;HPM_P1;HPM_P2
2021/11/03 00:00:43;;;;;;;17.13;14.65;;;8.10;99.90;;;;;;5049428;28;20454;-43
2021/11/03 00:03:09;;;;;;;18.13;13.80;;;8.10;99.90;;;;;;5057904;28;20025;-43
2021/11/03 00:05:39;;;;;;;19.65;14.40;;;8.00;99.90;;;;;;5051592;28;20488;-42
2021/11/03 00:08:05;;;;;;;18.08;14.63;;;7.90;99.90;;;;;;5056184;28;20480;-44
2021/11/03 00:10:32;;;;;;;16.70;13.35;;;7.90;99.90;;;;;;5053368;28;20051;-43
2021/11/03 00:12:57;;;;;;;16.63;14.05;;;7.90;99.90;;;;;;5053644;28;20040;-43
2021/11/03 00:15:23;;;;;;;16.35;14.30;;;7.90;99.90;;;;;;5056580;28;20047;-43
2021/11/03 00:17:48;;;;;;;17.10;14.38;;;7.90;99.90;;;;;;5049955;28;20029;-43
2021/11/03 00:20:17;;;;;;;20.15;15.13;;;7.90;99.90;;;;;;5058688;28;20024;-43
2021/11/03 00:22:42;;;;;;;18.95;14.88;;;7.90;99.90;;;;;;5049568;28;20056;-44
2021/11/03 00:25:11;;;;;;;18.65;15.07;;;7.90;99.90;;;;;;5058690;28;20068;-43
2021/11/03 00:27:36;;;;;;;21.73;16.83;;;7.90;99.90;;;;;;5049564;28;20920;-44
2021/11/03 00:30:03;;;;;;;19.15;15.18;;;7.90;99.90;;;;;;5059887;28;20075;-44
2021/11/03 00:32:29;;;;;;;18.60;15.68;;;7.90;99.90;;;;;;5047576;28;20029;-43
2021/11/03 00:34:54;;;;;;;19.88;16.02;;;7.90;99.90;;;;;;5061038;28;20035;-43
2021/11/03 00:37:20;;;;;;;20.35;16.20;;;7.90;99.90;;;;;;5048872;28;20025;-43
2021/11/03 00:39:45;;;;;;;21.80;16.98;;;7.90;99.90;;;;;;5059732;28;20044;-44
2021/11/03 00:42:11;;;;;;;21.40;16.73;;;7.90;99.90;;;;;;5049072;28;20461;-43
2021/11/03 00:44:36;;;;;;;22.60;17.65;;;7.90;99.90;;;;;;5057624;28;20753;-43
2021/11/03 00:47:02;;;;;;;25.88;17.85;;;7.90;99.90;;;;;;5050044;28;20029;-43
2021/11/03 00:49:27;;;;;;;25.88;18.10;;;7.80;99.90;;;;;;5055491;28;20054;-43
2021/11/03 00:51:53;;;;;;;23.63;17.48;;;7.80;99.90;;;;;;5052833;28;20082;-43
2021/11/03 00:54:19;;;;;;;24.88;17.13;;;7.80;99.90;;;;;;5052532;28;20021;-44
2021/11/03 00:56:48;;;;;;;24.88;17.85;;;7.70;99.90;;;;;;5054898;28;20052;-44
2021/11/03 00:59:13;;;;;;;24.45;17.42;;;7.70;99.90;;;;;;5049824;28;20573;-44
2021/11/03 01:01:39;;;;;;;22.08;17.80;;;7.60;99.90;;;;;;5057350;28;20115;-43
2021/11/03 01:04:04;;;;;;;30.33;17.85;;;7.60;99.90;;;;;;5049586;28;20031;-44
2021/11/03 01:06:30;;;;;;;44.90;18.58;;;7.60;99.90;;;;;;5058666;28;20033;-43
2021/11/03 01:08:56;;;;;;;32.03;18.25;;;7.60;99.90;;;;;;5047898;28;20489;-43
2021/11/03 01:11:21;;;;;;;38.92;17.95;;;7.60;99.90;;;;;;5059160;28;20021;-44
2021/11/03 01:13:48;;;;;;;38.95;17.67;;;7.50;99.90;;;;;;5047345;28;20033;-44
2021/11/03 01:16:14;;;;;;;41.10;16.92;;;7.50;99.90;;;;;;5060189;28;20037;-44
2021/11/03 01:18:42;;;;;;;46.40;17.23;;;7.50;99.90;;;;;;5047230;28;20511;-42
2021/11/03 01:21:08;;;;;;;32.17;15.85;;;7.50;99.90;;;;;;5059301;28;20036;-42
2021/11/03 01:23:34;;;;;;;31.33;16.55;;;7.50;99.90;;;;;;5047813;28;20043;-43
2021/11/03 01:26:00;;;;;;;29.67;16.08;;;7.50;99.90;;;;;;5057297;28;20111;-44
2021/11/03 01:28:26;;;;;;;52.17;15.80;;;7.40;99.90;;;;;;5049475;28;20025;-43
2021/11/03 01:30:52;;;;;;;44.58;14.88;;;7.40;99.90;;;;;;5054439;28;20430;-44
2021/11/03 01:33:20;;;;;;;60.13;15.75;;;7.40;99.90;;;;;;5048070;28;20021;-44
2021/11/03 01:35:45;;;;;;;37.33;14.23;;;7.30;99.90;;;;;;5051488;28;20434;-44
2021/11/03 01:38:11;;;;;;;25.85;13.95;;;7.20;99.90;;;;;;5053979;28;20024;-43
2021/11/03 01:40:41;;;;;;;24.02;15.35;;;7.20;99.90;;;;;;5049537;28;20410;-43
2021/11/03 01:43:08;;;;;;;35.28;14.60;;;7.10;99.90;;;;;;5056068;28;20094;-43
2021/11/03 01:45:35;;;;;;;24.77;15.13;;;7.10;99.90;;;;;;5047839;28;20234;-43
2021/11/03 01:48:04;;;;;;;33.67;14.18;;;7.10;99.90;;;;;;5058195;28;20138;-43
2021/11/03 01:50:40;;;;;;;27.15;15.00;;;7.00;99.90;;;;;;5047422;28;20630;-43
2021/11/03 01:53:12;;;;;;;20.98;14.57;;;7.00;99.90;;;;;;5058352;28;20602;-42
2021/11/03 01:55:51;;;;;;;24.95;14.50;;;7.00;99.90;;;;;;5047072;28;20037;-43
2021/11/03 01:58:22;;;;;;;31.25;15.48;;;6.90;99.90;;;;;;5045939;28;20031;-43
2021/11/03 02:00:51;;;;;;;29.45;15.38;;;6.90;99.90;;;;;;5065239;28;20119;-42
2021/11/03 02:03:20;;;;;;;19.77;14.32;;;6.80;99.90;;;;;;5055324;28;20028;-43
2021/11/03 02:05:49;;;;;;;17.02;15.20;;;6.80;99.90;;;;;;5065692;28;20032;-43
2021/11/03 02:08:16;;;;;;;17.13;14.57;;;6.70;99.90;;;;;;5055089;28;20055;-44
2021/11/03 02:10:41;;;;;;;16.30;14.45;;;6.70;99.90;;;;;;5066021;28;20032;-44
2021/11/03 02:13:13;;;;;;;18.83;14.63;;;6.60;99.90;;;;;;5054227;28;20035;-44
2021/11/03 02:15:39;;;;;;;15.82;14.13;;;6.60;99.90;;;;;;5066262;28;20090;-43
2021/11/03 02:18:07;;;;;;;15.57;13.93;;;6.60;99.90;;;;;;5053226;28;20057;-43
2021/11/03 02:20:33;;;;;;;17.88;15.13;;;6.50;99.90;;;;;;5066515;28;20669;-42
2021/11/03 02:23:22;;;;;;;18.13;14.25;;;6.50;99.90;;;;;;5055303;28;20120;-44
2021/11/03 02:26:09;;;;;;;15.95;13.95;;;6.50;99.90;;;;;;5026662;28;20116;-43
2021/11/03 02:28:36;;;;;;;23.98;14.40;;;6.40;99.90;;;;;;5057480;28;20023;-43
2021/11/03 02:31:02;;;;;;;19.15;13.80;;;6.40;99.90;;;;;;5045749;28;20029;-43
2021/11/03 02:33:31;;;;;;;40.20;13.90;;;6.40;99.90;;;;;;5050044;28;20032;-43
2021/11/03 02:36:01;;;;;;;49.65;15.10;;;6.40;99.90;;;;;;5026650;28;20030;-43
2021/11/03 02:38:44;;;;;;;33.88;12.48;;;6.40;99.90;;;;;;5050787;28;20103;-44
2021/11/03 02:41:15;;;;;;;46.67;11.82;;;6.40;99.90;;;;;;5026781;28;20470;-44
2021/11/03 02:43:44;;;;;;;26.70;11.75;;;6.50;99.90;;;;;;5051334;28;20388;-43
2021/11/03 02:46:11;;;;;;;37.42;11.00;;;6.50;99.90;;;;;;5046636;28;20025;-43
2021/11/03 02:48:39;;;;;;;54.58;11.80;;;6.40;99.90;;;;;;5054390;28;20034;-43
2021/11/03 02:51:14;;;;;;;52.50;11.93;;;6.40;99.90;;;;;;5049545;28;20029;-44
2021/11/03 02:53:44;;;;;;;41.58;11.73;;;6.40;99.90;;;;;;5053001;28;20021;-43
2021/11/03 02:56:10;;;;;;;39.53;12.05;;;6.40;99.90;;;;;;5049938;28;20056;-43
2021/11/03 02:58:37;;;;;;;37.85;12.70;;;6.40;99.90;;;;;;5051295;28;20139;-43
2021/11/03 03:01:21;;;;;;;44.03;14.00;;;6.40;99.90;;;;;;5052688;28;20041;-43
2021/11/03 03:03:48;;;;;;;39.92;13.13;;;6.40;99.90;;;;;;5051558;28;20032;-43
2021/11/03 03:06:19;;;;;;;35.75;12.80;;;6.40;99.90;;;;;;5052256;28;20029;-43
2021/11/03 03:08:45;;;;;;;28.77;12.00;;;6.40;99.90;;;;;;5049254;28;20035;-44
2021/11/03 03:11:14;;;;;;;44.00;12.38;;;6.40;99.90;;;;;;5054416;28;20021;-44
2021/11/03 03:13:41;;;;;;;36.83;11.32;;;6.30;99.90;;;;;;5047110;28;20033;-44
2021/11/03 03:16:06;;;;;;;32.78;11.35;;;6.40;99.90;;;;;;5056110;28;20132;-44
2021/11/03 03:18:32;;;;;;;37.90;11.27;;;6.30;99.90;;;;;;5047232;28;20107;-42
2021/11/03 03:20:57;;;;;;;24.65;12.23;;;6.40;99.90;;;;;;5055865;28;20067;-43
2021/11/03 03:23:23;;;;;;;24.88;10.60;;;6.40;99.90;;;;;;5046799;28;20392;-43
2021/11/03 03:25:50;;;;;;;38.10;10.77;;;6.40;99.90;;;;;;5057398;28;20017;-43
2021/11/03 03:28:18;;;;;;;20.55;10.30;;;6.50;99.90;;;;;;5045560;28;20048;-43
2021/11/03 03:30:44;;;;;;;24.92;10.93;;;6.50;99.90;;;;;;5058184;28;20119;-42
2021/11/03 03:33:10;;;;;;;31.25;11.20;;;6.50;99.90;;;;;;5045727;28;20021;-42
2021/11/03 03:35:36;;;;;;;26.90;9.98;;;6.50;99.90;;;;;;5048900;28;20037;-43
2021/11/03 03:38:01;;;;;;;31.13;10.45;;;6.50;99.90;;;;;;5045764;28;20085;-43
2021/11/03 03:40:30;;;;;;;22.25;10.18;;;6.50;99.90;;;;;;5055336;28;20041;-43
2021/11/03 03:42:55;;;;;;;17.75;10.20;;;6.50;99.90;;;;;;5046988;28;20068;-43
2021/11/03 03:45:21;;;;;;;23.73;10.43;;;6.50;99.90;;;;;;5053424;28;21014;-43
2021/11/03 03:47:47;;;;;;;23.45;10.35;;;6.50;99.90;;;;;;5049439;28;20025;-43
2021/11/03 03:50:13;;;;;;;24.60;10.82;;;6.50;99.90;;;;;;5050392;28;20032;-43
2021/11/03 03:52:38;;;;;;;19.30;10.55;;;6.50;99.90;;;;;;5053024;28;20036;-44
2021/11/03 03:55:07;;;;;;;16.58;10.15;;;6.50;99.90;;;;;;5046787;28;20041;-43
2021/11/03 03:57:33;;;;;;;15.75;9.57;;;6.40;99.90;;;;;;5051026;28;20083;-44
2021/11/03 03:59:59;;;;;;;17.40;10.00;;;6.50;99.90;;;;;;5047361;28;20514;-43
2021/11/03 04:02:24;;;;;;;19.70;10.30;;;6.40;99.90;;;;;;5059754;28;20021;-43
2021/11/03 04:04:50;;;;;;;18.40;9.95;;;6.50;99.90;;;;;;5049762;28;20036;-43
2021/11/03 04:07:15;;;;;;;27.88;10.48;;;6.40;99.90;;;;;;5060637;28;20112;-43
2021/11/03 04:09:41;;;;;;;21.33;9.35;;;6.40;99.90;;;;;;5048088;28;20040;-44
2021/11/03 04:12:10;;;;;;;19.05;9.77;;;6.30;99.90;;;;;;5061340;28;20021;-43
2021/11/03 04:14:35;;;;;;;15.70;9.02;;;6.30;99.90;;;;;;5049222;28;20025;-44
2021/11/03 04:17:01;;;;;;;21.63;9.35;;;6.30;99.90;;;;;;5060336;28;20375;-44
2021/11/03 04:19:26;;;;;;;26.77;9.77;;;6.20;99.90;;;;;;5048757;28;20036;-44
2021/11/03 04:21:55;;;;;;;39.28;10.07;;;6.20;99.90;;;;;;5059149;28;20036;-42
2021/11/03 04:24:21;;;;;;;29.13;10.13;;;6.20;99.90;;;;;;5050346;28;20056;-43
2021/11/03 04:26:47;;;;;;;25.90;9.80;;;6.20;99.90;;;;;;5056303;28;20024;-44
2021/11/03 04:29:14;;;;;;;28.13;10.45;;;6.10;99.90;;;;;;5053242;28;20045;-42
2021/11/03 04:31:40;;;;;;;27.88;10.60;;;6.10;99.90;;;;;;5053496;28;20017;-43
2021/11/03 04:34:06;;;;;;;21.23;9.90;;;6.10;99.90;;;;;;5055121;28;20029;-42
2021/11/03 04:36:32;;;;;;;27.98;10.05;;;6.00;99.90;;;;;;5051368;28;20060;-44
2021/11/03 04:39:02;;;;;;;19.08;9.75;;;6.00;99.90;;;;;;5056641;28;20503;-44
2021/11/03 04:41:28;;;;;;;20.30;9.95;;;5.90;99.90;;;;;;5050026;28;20028;-44
2021/11/03 04:43:53;;;;;;;21.15;10.60;;;5.90;99.90;;;;;;5059203;28;20021;-44
2021/11/03 04:46:19;;;;;;;19.63;10.07;;;5.90;99.90;;;;;;5049246;28;20043;-44
2021/11/03 04:48:45;;;;;;;18.83;10.10;;;5.90;99.90;;;;;;5058897;28;20393;-45
2021/11/03 04:51:11;;;;;;;19.13;10.50;;;5.90;99.90;;;;;;5047953;28;20437;-44
2021/11/03 04:53:37;;;;;;;19.73;10.45;;;5.90;99.90;;;;;;5060237;28;20147;-43
2021/11/03 04:56:05;;;;;;;20.70;10.27;;;6.00;99.90;;;;;;5049958;28;20052;-43
2021/11/03 04:58:31;;;;;;;25.42;11.20;;;6.00;99.90;;;;;;5054561;28;20036;-43
2021/11/03 05:00:56;;;;;;;12.93;10.82;;;6.00;99.90;;;;;;5067560;28;20025;-44
2021/11/03 05:03:29;;;;;;;25.35;9.40;;;6.00;99.90;;;;;;5056715;28;20037;-44
2021/11/03 05:05:56;;;;;;;11.88;10.48;;;6.00;99.90;;;;;;5066945;28;20097;-43
2021/11/03 05:08:21;;;;;;;15.70;9.70;;;6.00;99.90;;;;;;5058221;28;20030;-43
2021/11/03 05:10:48;;;;;;;17.20;10.60;;;6.00;99.90;;;;;;5064575;28;20404;-43
2021/11/03 05:13:13;;;;;;;21.92;9.95;;;6.00;99.90;;;;;;5059367;28;20116;-43
2021/11/03 05:15:39;;;;;;;14.18;9.90;;;6.00;99.90;;;;;;5062178;28;20181;-43
2021/11/03 05:18:05;;;;;;;19.25;9.63;;;6.00;99.90;;;;;;5063222;28;20028;-43
2021/11/03 05:20:30;;;;;;;28.50;9.80;;;6.00;99.90;;;;;;5059623;28;20032;-42
2021/11/03 05:22:56;;;;;;;22.75;9.20;;;6.00;99.90;;;;;;5065236;28;20362;-43
2021/11/03 05:25:25;;;;;;;22.05;9.05;;;6.00;99.90;;;;;;5057330;28;20020;-43
2021/11/03 05:27:51;;;;;;;22.40;9.25;;;6.00;99.90;;;;;;5065332;28;20048;-43
2021/11/03 05:30:17;;;;;;;17.55;8.88;;;6.00;99.90;;;;;;5056216;28;20044;-43
2021/11/03 05:32:43;;;;;;;24.55;8.23;;;6.00;99.90;;;;;;5053900;28;20033;-43
2021/11/03 05:35:10;;;;;;;34.42;9.32;;;6.00;99.90;;;;;;5055259;28;20031;-43
2021/11/03 05:37:36;;;;;;;39.85;9.35;;;6.00;99.90;;;;;;5067511;28;20020;-43
2021/11/03 05:40:05;;;;;;;33.28;8.95;;;6.00;99.90;;;;;;5053980;28;20373;-43
2021/11/03 05:42:30;;;;;;;30.50;9.10;;;6.00;99.90;;;;;;5066472;28;20507;-44
2021/11/03 05:44:56;;;;;;;27.05;9.30;;;6.00;99.90;;;;;;5054006;28;20024;-43
2021/11/03 05:47:25;;;;;;;30.48;8.70;;;6.00;99.90;;;;;;5066692;28;20107;-44
2021/11/03 05:49:56;;;;;;;36.70;9.20;;;6.00;99.90;;;;;;5056088;28;20469;-44
2021/11/03 05:52:22;;;;;;;32.35;9.05;;;6.00;99.90;;;;;;5066545;28;20391;-44
2021/11/03 05:54:47;;;;;;;31.73;9.43;;;6.00;99.90;;;;;;5057263;28;20120;-44
2021/11/03 05:57:20;;;;;;;18.77;9.02;;;5.90;99.90;;;;;;5063196;28;20052;-43
2021/11/03 05:59:47;;;;;;;19.33;8.50;;;5.90;99.90;;;;;;5059373;28;20437;-43
2021/11/03 06:02:12;;;;;;;20.30;8.48;;;5.90;99.90;;;;;;5061259;28;20078;-44
2021/11/03 06:04:38;;;;;;;38.65;9.20;;;5.90;99.90;;;;;;5062070;28;20020;-43
2021/11/03 06:07:04;;;;;;;29.48;9.82;;;5.90;99.90;;;;;;5058999;28;20112;-44
2021/11/03 06:09:29;;;;;;;20.25;9.73;;;5.90;99.90;;;;;;5063615;28;20050;-44
2021/11/03 06:11:55;;;;;;;20.38;9.48;;;5.90;99.90;;;;;;5055660;28;20079;-43
2021/11/03 06:14:23;;;;;;;15.50;9.45;;;5.90;99.90;;;;;;5065692;28;20029;-43
2021/11/03 06:16:49;;;;;;;23.88;9.43;;;5.90;99.90;;;;;;5054884;28;20085;-43
2021/11/03 06:19:15;;;;;;;18.75;8.70;;;5.90;99.90;;;;;;5066411;28;20032;-43
2021/11/03 06:21:41;;;;;;;18.60;9.35;;;5.90;99.90;;;;;;5054624;28;20464;-43
2021/11/03 06:24:06;;;;;;;22.10;9.27;;;5.90;99.90;;;;;;5065307;28;20029;-43
2021/11/03 06:26:35;;;;;;;29.63;9.38;;;5.90;99.90;;;;;;5053910;28;20104;-42
2021/11/03 06:29:00;;;;;;;16.42;8.77;;;5.90;99.90;;;;;;5066359;28;20032;-43
2021/11/03 06:31:26;;;;;;;17.20;9.20;;;5.90;99.90;;;;;;5053232;28;20027;-44
2021/11/03 06:33:52;;;;;;;28.23;9.25;;;5.90;99.90;;;;;;5066346;28;20047;-43
2021/11/03 06:36:18;;;;;;;19.88;8.55;;;5.90;99.90;;;;;;5056331;28;20063;-43
2021/11/03 06:38:44;;;;;;;26.80;9.40;;;6.00;99.90;;;;;;5062880;28;20028;-44
2021/11/03 06:41:10;;;;;;;12.07;8.57;;;6.00;99.90;;;;;;5058674;28;20090;-43
2021/11/03 06:43:36;;;;;;;19.65;10.25;;;5.90;99.90;;;;;;5060884;28;20116;-43
2021/11/03 06:46:02;;;;;;;13.43;9.80;;;5.90;99.90;;;;;;5060145;28;20056;-43
2021/11/03 06:48:28;;;;;;;17.17;9.68;;;5.90;99.90;;;;;;5048465;28;20029;-43
2021/11/03 06:50:53;;;;;;;22.17;9.55;;;6.00;99.90;;;;;;5048630;28;20028;-42
2021/11/03 06:53:22;;;;;;;24.67;9.23;;;6.00;99.90;;;;;;5053243;28;20021;-44
2021/11/03 06:55:49;;;;;;;36.47;9.55;;;6.00;99.90;;;;;;5061685;28;20142;-44
2021/11/03 06:58:15;;;;;;;27.65;9.60;;;6.10;99.90;;;;;;5054186;28;20023;-43
2021/11/03 07:00:43;;;;;;;25.23;9.85;;;6.10;99.90;;;;;;5063255;28;20021;-43
2021/11/03 07:03:09;;;;;;;30.83;9.77;;;6.10;99.90;;;;;;5052686;28;20052;-43
2021/11/03 07:05:38;;;;;;;24.70;9.82;;;6.10;99.90;;;;;;5045304;28;20040;-44
2021/11/03 07:08:04;;;;;;;28.85;9.52;;;6.10;99.90;;;;;;5052147;28;20032;-44
2021/11/03 07:10:34;;;;;;;23.80;9.27;;;6.10;99.90;;;;;;5065297;28;20113;-43
2021/11/03 07:13:00;;;;;;;23.55;9.20;;;6.10;99.90;;;;;;5051233;28;20296;-43
2021/11/03 07:15:29;;;;;;;26.58;10.60;;;6.10;99.90;;;;;;5065943;28;20028;-44
2021/11/03 07:17:58;;;;;;;36.13;10.27;;;6.10;99.90;;;;;;5052968;28;20563;-42
2021/11/03 07:20:27;;;;;;;20.25;10.73;;;6.20;99.90;;;;;;5064128;28;20025;-43
2021/11/03 07:22:54;;;;;;;27.67;10.63;;;6.20;99.90;;;;;;5055690;28;20016;-43
2021/11/03 07:25:22;;;;;;;37.85;11.30;;;6.20;99.90;;;;;;5045450;28;20370;-43
2021/11/03 07:27:50;;;;;;;33.13;11.43;;;6.20;99.90;;;;;;5049295;28;20017;-43
2021/11/03 07:30:18;;;;;;;46.88;12.27;;;6.20;99.90;;;;;;5061809;28;20037;-43
2021/11/03 07:32:44;;;;;;;35.47;11.90;;;6.20;99.90;;;;;;5057367;28;20025;-43
2021/11/03 07:35:10;;;;;;;24.45;11.15;;;6.20;99.90;;;;;;5054049;28;20025;-43
2021/11/03 07:37:37;;;;;;;19.23;12.95;;;6.20;99.90;;;;;;5052805;28;20377;-43
2021/11/03 07:40:07;;;;;;;41.00;12.75;;;6.30;99.90;;;;;;5057680;28;20031;-43
2021/11/03 07:42:33;;;;;;;39.20;12.48;;;6.30;99.90;;;;;;5051001;28;20100;-43
2021/11/03 07:44:58;;;;;;;37.15;13.48;;;6.30;99.90;;;;;;5060221;28;20421;-44
2021/11/03 07:47:24;;;;;;;34.97;13.77;;;6.30;99.90;;;;;;5050104;28;20028;-43
2021/11/03 07:49:49;;;;;;;29.67;13.90;;;6.30;99.90;;;;;;5060060;28;20028;-43
2021/11/03 07:52:15;;;;;;;31.67;13.45;;;6.30;99.90;;;;;;5049946;28;20045;-43
2021/11/03 07:54:42;;;;;;;26.98;13.13;;;6.30;99.90;;;;;;5054202;28;20123;-43
2021/11/03 07:57:08;;;;;;;41.38;13.23;;;6.30;99.90;;;;;;5049091;28;20516;-42
2021/11/03 07:59:34;;;;;;;32.03;13.05;;;6.30;99.90;;;;;;5054779;28;20168;-43
2021/11/03 08:02:00;;;;;;;34.08;14.25;;;6.40;99.90;;;;;;5068300;28;20107;-43
2021/11/03 08:04:30;;;;;;;26.13;14.07;;;6.40;99.90;;;;;;5057253;28;20025;-43
2021/11/03 08:06:55;;;;;;;34.90;15.07;;;6.40;99.90;;;;;;5068900;28;20117;-44
2021/11/03 08:09:21;;;;;;;26.02;14.30;;;6.40;99.90;;;;;;5058996;28;20121;-43
2021/11/03 08:14:15;;;;;;;24.48;14.05;;;6.40;99.90;;;;;;5061935;28;20040;-44
2021/11/03 08:16:54;;;;;;;20.80;14.95;;;6.40;99.90;;;;;;5063133;28;20040;-44
2021/11/03 08:19:23;;;;;;;17.88;14.30;;;6.40;99.90;;;;;;5062992;28;20017;-43
2021/11/03 08:21:49;;;;;;;20.88;15.05;;;6.40;99.90;;;;;;5063245;28;20399;-43
2021/11/03 08:24:14;;;;;;;20.73;15.02;;;6.40;99.90;;;;;;5064312;28;20013;-43
2021/11/03 08:26:40;;;;;;;18.08;13.80;;;6.40;99.90;;;;;;5059914;28;20028;-42
2021/11/03 08:29:06;;;;;;;20.60;14.57;;;6.40;99.90;;;;;;5066382;28;20419;-42
2021/11/03 08:31:32;;;;;;;20.23;14.73;;;6.50;99.90;;;;;;5054138;28;20678;-44
2021/11/03 08:33:57;;;;;;;18.55;14.30;;;6.50;99.90;;;;;;5050186;28;20032;-43
2021/11/03 08:36:23;;;;;;;17.50;13.77;;;6.50;99.90;;;;;;5056607;28;20027;-44
2021/11/03 08:38:56;;;;;;;17.77;14.20;;;6.60;99.90;;;;;;5068173;28;20040;-42
2021/11/03 08:41:22;;;;;;;19.15;14.52;;;6.60;99.90;;;;;;5056630;28;20048;-42
2021/11/03 08:43:49;;;;;;;17.13;14.13;;;6.70;99.90;;;;;;5067682;28;20393;-42
2021/11/03 08:46:18;;;;;;;18.52;13.77;;;6.80;99.90;;;;;;5054725;28;20025;-42
2021/11/03 08:48:43;;;;;;;16.95;13.60;;;6.80;99.90;;;;;;5068252;28;20027;-43
2021/11/03 08:51:09;;;;;;;16.92;13.43;;;6.90;99.90;;;;;;5054341;28;20036;-44
2021/11/03 08:53:35;;;;;;;16.30;13.50;;;6.90;99.90;;;;;;5068357;28;20032;-43
2021/11/03 08:56:00;;;;;;;16.10;12.48;;;6.90;99.90;;;;;;5059047;28;20075;-33
2021/11/03 08:58:28;;;;;;;13.82;12.05;;;6.90;99.90;;;;;;5055341;28;20070;-33
2021/11/03 09:00:55;;;;;;;13.68;12.00;;;6.90;99.90;;;;;;5056009;28;20054;-32
2021/11/03 09:03:21;;;;;;;15.50;12.40;;;6.90;99.90;;;;;;5052039;28;20025;-32
2021/11/03 09:05:47;;;;;;;13.30;11.75;;;6.80;99.90;;;;;;5053123;28;20020;-33
2021/11/03 09:08:15;;;;;;;13.27;11.70;;;6.80;99.90;;;;;;5054978;28;20051;-33
2021/11/03 09:10:46;;;;;;;12.57;11.20;;;6.80;99.90;;;;;;5050821;28;20577;-32
2021/11/03 09:13:16;;;;;;;12.55;11.25;;;6.80;99.90;;;;;;5055976;28;20025;-34
2021/11/03 09:15:42;;;;;;;13.70;11.57;;;6.80;99.90;;;;;;5049748;28;20036;-43
2021/11/03 09:18:08;;;;;;;14.02;12.02;;;6.90;99.90;;;;;;5058527;28;20060;-43
2021/11/03 09:20:33;;;;;;;13.20;11.85;;;6.90;99.90;;;;;;5046186;28;20067;-44
2021/11/03 09:22:59;;;;;;;14.25;11.70;;;7.00;99.90;;;;;;5058807;28;20025;-43
2021/11/03 09:25:24;;;;;;;16.23;12.57;;;7.10;99.90;;;;;;5047194;28;20025;-42
2021/11/03 09:27:51;;;;;;;17.75;13.90;;;7.10;99.90;;;;;;5059354;28;20104;-45
2021/11/03 09:30:27;;;;;;;17.92;13.90;;;7.30;99.90;;;;;;5047682;28;20103;-44
2021/11/03 09:32:57;;;;;;;18.50;13.98;;;7.30;99.90;;;;;;5051284;28;20372;-44
2021/11/03 09:35:26;;;;;;;16.98;14.00;;;7.40;99.90;;;;;;5067152;28;20059;-42
2021/11/03 09:37:51;;;;;;;17.23;14.02;;;7.40;99.90;;;;;;5055218;28;20086;-43
2021/11/03 09:40:41;;;;;;;15.88;13.70;;;7.50;99.90;;;;;;5066329;28;20040;-43
2021/11/03 09:43:34;;;;;;;17.02;13.73;;;7.60;99.90;;;;;;5054017;28;20047;-43
2021/11/03 09:46:02;;;;;;;19.67;15.30;;;7.70;99.90;;;;;;5067755;28;20104;-42
2021/11/03 09:48:33;;;;;;;19.25;15.20;;;7.70;99.90;;;;;;5054169;28;20024;-42
2021/11/03 09:51:03;;;;;;;18.38;14.30;;;7.70;99.90;;;;;;5067506;28;20056;-43
2021/11/03 09:53:42;;;;;;;18.00;14.55;;;7.70;99.90;;;;;;5053105;28;20484;-42
2021/11/03 09:56:15;;;;;;;19.33;14.93;;;7.80;99.90;;;;;;5064639;28;20059;-43
2021/11/03 09:58:50;;;;;;;;;;;7.80;99.90;;;;;;5058655;28;20066;-43
2021/11/03 10:01:34;;;;;;;15.27;12.52;;;7.80;99.90;;;;;;5046165;28;19936;-44
2021/11/03 10:04:13;;;;;;;13.20;10.98;;;7.80;99.90;;;;;;5058992;28;20033;-44
2021/11/03 10:07:03;;;;;;;18.30;13.88;;;7.80;99.90;;;;;;5046656;28;20057;-44
2021/11/03 10:09:29;;;;;;;15.27;12.88;;;7.80;99.90;;;;;;5055013;28;20032;-44
2021/11/03 10:11:55;;;;;;;16.55;12.75;;;7.80;99.90;;;;;;5047002;28;20538;-43
2021/11/03 10:14:22;;;;;;;15.82;13.43;;;7.80;99.90;;;;;;5059507;28;20610;-44
2021/11/03 10:16:51;;;;;;;17.77;13.27;;;7.80;99.90;;;;;;5045843;28;20052;-43
2021/11/03 10:19:19;;;;;;;17.33;14.13;;;7.90;99.90;;;;;;5052875;28;20041;-44
2021/11/03 10:21:52;;;;;;;14.65;11.77;;;7.90;99.90;;;;;;5058336;28;20029;-43
2021/11/03 10:24:19;;;;;;;;;;;8.00;99.90;;;;;;5051358;28;20033;-43
2021/11/03 10:26:54;;;;;;;15.07;12.73;;;8.00;99.90;;;;;;5066656;28;19912;-43
2021/11/03 10:29:25;;;;;;;16.58;12.63;;;8.10;99.90;;;;;;5053811;28;20044;-43
2021/11/03 10:32:20;;;;;;;14.23;12.32;;;8.10;99.90;;;;;;5034002;28;20060;-43
2021/11/03 10:34:50;;;;;;;14.07;11.90;;;8.20;99.90;;;;;;5057963;28;20033;-43
2021/11/03 10:37:16;;;;;;;13.23;11.70;;;8.20;99.90;;;;;;5066522;28;20021;-43
2021/11/03 10:39:58;;;;;;;14.10;12.57;;;8.20;99.90;;;;;;5053840;28;20032;-43
2021/11/03 10:42:56;;;;;;;12.90;11.50;;;8.30;99.90;;;;;;5025796;28;20026;-43
2021/11/03 10:45:22;;;;;;;13.88;11.57;;;8.40;99.90;;;;;;5058331;28;20025;-41
2021/11/03 10:47:52;;;;;;;12.98;11.30;;;8.40;99.90;;;;;;5046747;28;20040;-43
2021/11/03 10:50:27;;;;;;;14.88;11.65;;;8.50;99.90;;;;;;5057963;28;20127;-43
2021/11/03 10:52:57;;;;;;;13.98;12.00;;;8.50;99.90;;;;;;5044618;28;20661;-43
2021/11/03 10:55:37;;;;;;;15.75;12.18;;;8.60;99.90;;;;;;5057913;28;20040;-43
2021/11/03 10:58:03;;;;;;;14.07;11.90;;;8.70;99.90;;;;;;5045538;28;20052;-42
2021/11/03 11:00:36;;;;;;;16.52;13.32;;;8.80;99.90;;;;;;5058349;28;20086;-43
2021/11/03 11:03:13;;;;;;;15.90;12.50;;;8.90;99.90;;;;;;5046102;28;20025;-43
2021/11/03 11:05:44;;;;;;;14.38;12.55;;;8.90;99.90;;;;;;5057380;28;20026;-44
2021/11/03 11:08:17;;;;;;;16.48;13.05;;;9.10;99.90;;;;;;5042750;28;20875;-44
2021/11/03 11:10:54;;;;;;;16.33;12.60;;;9.10;99.90;;;;;;5061320;28;20131;-43
2021/11/03 11:13:24;;;;;;;15.00;12.48;;;9.20;99.90;;;;;;5048613;28;20049;-43
2021/11/03 11:16:07;;;;;;;16.08;13.18;;;9.20;99.90;;;;;;5061256;28;20020;-44
2021/11/03 11:18:38;;;;;;;14.30;12.80;;;9.30;99.90;;;;;;5029688;28;20033;-43
2021/11/03 11:21:20;;;;;;;12.00;10.75;;;9.30;99.90;;;;;;5058214;28;20430;-43
2021/11/03 11:23:52;;;;;;;13.15;11.15;;;9.40;99.90;;;;;;5029162;28;20159;-44
2021/11/03 11:26:48;;;;;;;14.85;12.50;;;9.40;99.90;;;;;;5058595;28;20052;-44
2021/11/03 11:29:52;;;;;;;13.82;12.15;;;9.40;99.90;;;;;;5049833;28;20502;-43
2021/11/03 11:32:31;;;;;;;13.43;10.65;;;9.50;99.90;;;;;;5012303;28;20048;-43
2021/11/03 11:35:05;;;;;;;16.83;13.27;;;9.50;99.90;;;;;;5049107;28;20434;-43
2021/11/03 11:37:32;;;;;;;14.13;12.38;;;9.50;99.90;;;;;;5061182;28;20024;-43
2021/11/03 11:40:37;;;;;;;14.75;12.07;;;9.50;99.90;;;;;;5050276;28;20045;-43
2021/11/03 11:43:11;;;;;;;16.05;13.43;;;9.50;99.90;;;;;;5049767;28;20500;-44
2021/11/03 11:45:41;;;;;;;18.63;14.18;;;9.50;99.90;;;;;;5067861;28;20103;-43
2021/11/03 11:48:16;;;;;;;16.55;14.18;;;9.50;99.90;;;;;;5048236;28;20056;-43
2021/11/03 11:50:50;;;;;;;16.58;13.18;;;9.50;99.90;;;;;;5067752;28;20140;-43
2021/11/03 11:53:47;;;;;;;18.52;14.10;;;9.50;99.90;;;;;;5047148;28;20028;-43
2021/11/03 11:56:19;;;;;;;18.73;14.18;;;9.60;99.90;;;;;;5064197;28;20041;-43
2021/11/03 11:59:01;;;;;;;16.33;12.93;;;9.70;99.90;;;;;;5062647;28;20035;-42
2021/11/03 12:01:56;;;;;;;15.85;13.18;;;9.80;99.90;;;;;;5064491;28;20031;-42
2021/11/03 12:04:21;;;;;;;17.65;13.60;;;9.80;99.90;;;;;;5064522;28;20029;-43
2021/11/03 12:06:53;;;;;;;17.45;14.25;;;9.90;99.90;;;;;;5063831;28;20207;-43
2021/11/03 12:09:42;;;;;;;21.02;15.45;;;10.00;99.90;;;;;;5062013;28;20148;-42
2021/11/03 12:12:08;;;;;;;19.08;15.07;;;10.10;99.90;;;;;;5062199;28;20025;-42
2021/11/03 12:14:50;;;;;;;20.25;15.38;;;10.10;99.90;;;;;;5061817;28;20039;-43
2021/11/03 12:17:50;;;;;;;15.70;13.85;;;10.10;99.90;;;;;;5062924;28;20044;-43
2021/11/03 12:20:38;;;;;;;15.38;12.10;;;10.10;99.90;;;;;;5067325;28;20028;-43
2021/11/03 12:23:05;;;;;;;18.52;15.13;;;10.20;99.90;;;;;;5056565;28;20033;-42
2021/11/03 12:25:30;;;;;;;18.42;15.00;;;10.20;99.90;;;;;;5067563;28;20454;-42
2021/11/03 12:28:11;;;;;;;18.25;14.38;;;10.20;99.90;;;;;;5059635;28;20595;-42
2021/11/03 12:30:48;;;;;;;19.30;14.95;;;10.20;99.90;;;;;;5066502;28;20293;-40
2021/11/03 12:33:15;;;;;;;19.60;14.23;;;10.30;99.90;;;;;;5059330;28;20096;-43
2021/11/03 12:35:48;;;;;;;17.65;13.77;;;10.30;99.90;;;;;;5050340;28;20032;-42
2021/11/03 12:38:14;;;;;;;20.48;15.20;;;10.30;99.90;;;;;;5056650;28;20031;-42
2021/11/03 12:40:43;;;;;;;17.80;13.40;;;10.30;99.90;;;;;;5051852;28;20029;-43
2021/11/03 12:43:25;;;;;;;17.42;14.85;;;10.40;99.90;;;;;;5053868;28;20028;-42
2021/11/03 12:46:06;;;;;;;21.30;16.33;;;10.40;99.90;;;;;;5051734;28;20045;-44
2021/11/03 12:48:47;;;;;;;21.85;16.67;;;10.40;99.90;;;;;;5055945;28;20029;-43
2021/11/03 12:51:19;;;;;;;22.40;17.00;;;10.40;99.90;;;;;;5049862;28;20105;-43